createdAt,value
2023-02-19T00:01:32.510Z,97592.23
2023-02-19T00:05:00.812Z,97593.58
2023-02-19T00:08:47.432Z,97587.90
2023-02-19T00:12:01.967Z,97587.73
2023-02-19T00:15:40.252Z,97595.92
2023-02-19T00:18:30.833Z,97600.69
2023-02-19T00:21:30.832Z,97604.35
2023-02-19T00:24:01.801Z,97608.46
2023-02-19T00:26:30.204Z,97613.54
2023-02-19T00:28:59.762Z,97616.18
2023-02-19T00:31:32.696Z,97608.75
2023-02-19T00:34:03.682Z,97599.11
2023-02-19T00:36:35.173Z,97593.65
2023-02-19T00:39:04.079Z,97583.51
2023-02-19T00:41:33.138Z,97588.73
2023-02-19T00:44:03.076Z,97590.08
2023-02-19T00:46:34.431Z,97582.89
2023-02-19T00:49:05.582Z,97585.62
2023-02-19T00:51:36.292Z,97589.27
2023-02-19T00:54:05.330Z,97583.19
2023-02-19T00:56:33.843Z,97581.87
2023-02-19T00:59:02.392Z,97587.26
2023-02-19T01:01:32.323Z,97591.82
2023-02-19T01:04:00.833Z,97585.86
2023-02-19T01:06:31.640Z,97583.12
2023-02-19T01:09:00.228Z,97578.34
2023-02-19T01:11:28.452Z,97578.91
2023-02-19T01:13:58.882Z,97573.80
2023-02-19T01:16:27.628Z,97570.80
2023-02-19T01:18:56.943Z,97571.55
2023-02-19T01:21:26.741Z,97571.80
2023-02-19T01:23:55.738Z,97574.39
2023-02-19T01:26:27.779Z,97575.09
2023-02-19T01:28:56.398Z,97576.10
2023-02-19T01:31:25.343Z,97573.20
2023-02-19T01:33:55.766Z,97569.11
2023-02-19T01:36:24.992Z,97567.83
2023-02-19T01:38:53.670Z,97564.46
2023-02-19T01:41:23.910Z,97561.47
2023-02-19T01:44:01.387Z,97561.94
2023-02-19T01:46:31.896Z,97566.36
2023-02-19T01:49:04.439Z,97559.06
2023-02-19T01:51:35.220Z,97554.25
2023-02-19T01:54:07.293Z,97551.92
2023-02-19T01:56:37.772Z,97545.07
2023-02-19T01:59:07.115Z,97543.80
2023-02-19T02:01:37.533Z,97535.89
2023-02-19T02:04:07.331Z,97532.47
2023-02-19T02:06:41.978Z,97534.26
2023-02-19T02:09:29.207Z,97525.20
2023-02-19T02:11:57.553Z,97519.69
2023-02-19T02:14:29.466Z,97517.66
2023-02-19T02:17:08.932Z,97517.24
2023-02-19T02:20:01.081Z,97519.48
2023-02-19T02:22:35.864Z,97517.75
2023-02-19T02:25:39.799Z,97508.75
2023-02-19T02:28:22.211Z,97509.55
2023-02-19T02:30:54.462Z,97506.34
2023-02-19T02:33:32.731Z,97508.16
2023-02-19T02:36:05.620Z,97508.72
2023-02-19T02:38:38.449Z,97507.33
2023-02-19T02:41:07.717Z,97504.70
2023-02-19T02:43:35.983Z,97505.27
2023-02-19T02:46:05.082Z,97501.36
2023-02-19T02:48:38.610Z,97497.65
2023-02-19T02:51:14.757Z,97496.67
2023-02-19T02:54:21.552Z,97495.16
2023-02-19T02:56:50.932Z,97493.84
2023-02-19T02:59:21.847Z,97490.61
2023-02-19T03:02:11.901Z,97489.05
2023-02-19T03:05:08.229Z,97490.02
2023-02-19T03:07:39.235Z,97486.38
2023-02-19T03:10:13.128Z,97485.52
2023-02-19T03:13:02.928Z,97485.14
2023-02-19T03:15:54.696Z,97482.85
2023-02-19T03:18:44.594Z,97477.23
2023-02-19T03:21:15.347Z,97471.02
2023-02-19T03:24:03.412Z,97468.76
2023-02-19T03:26:33.285Z,97461.70
2023-02-19T03:29:23.022Z,97459.58
2023-02-19T03:31:56.111Z,97462.09
2023-02-19T03:34:26.346Z,97463.53
2023-02-19T03:37:02.843Z,97455.67
2023-02-19T03:39:32.011Z,97457.28
2023-02-19T03:42:08.522Z,97456.98
2023-02-19T03:44:41.691Z,97460.79
2023-02-19T03:47:16.930Z,97466.66
2023-02-19T03:49:49.741Z,97468.73
2023-02-19T03:52:27.602Z,97469.92
2023-02-19T03:55:03.814Z,97472.39
2023-02-19T03:57:38.955Z,97472.48
2023-02-19T04:00:13.641Z,97466.92
2023-02-19T04:02:50.375Z,97467.41
2023-02-19T04:05:22.302Z,97467.79
2023-02-19T04:07:54.700Z,97463.73
2023-02-19T04:10:28.224Z,97458.42
2023-02-19T04:13:01.259Z,97456.69
2023-02-19T04:15:33.234Z,97452.21
2023-02-19T04:18:07.486Z,97447.73
2023-02-19T04:20:39.956Z,97449.90
2023-02-19T04:23:08.906Z,97450.23
2023-02-19T04:25:40.921Z,97451.21
2023-02-19T04:28:09.831Z,97445.86
2023-02-19T04:30:38.153Z,97445.46
2023-02-19T04:33:06.378Z,97445.08
2023-02-19T04:35:34.615Z,97443.02
2023-02-19T04:38:02.858Z,97442.96
2023-02-19T04:40:31.084Z,97440.77
2023-02-19T04:42:59.319Z,97440.25
2023-02-19T04:45:27.522Z,97441.39
2023-02-19T04:47:57.836Z,97440.84
2023-02-19T04:50:26.018Z,97440.55
2023-02-19T04:52:54.196Z,97441.86
2023-02-19T04:55:22.421Z,97438.56
2023-02-19T04:57:50.623Z,97437.84
2023-02-19T05:00:19.260Z,97425.96
2023-02-19T05:02:47.530Z,97419.64
2023-02-19T05:05:16.009Z,97411.63
2023-02-19T05:07:44.242Z,97406.55
2023-02-19T05:10:12.498Z,97405.96
2023-02-19T05:12:40.735Z,97401.63
2023-02-19T05:15:08.990Z,97395.42
2023-02-19T05:17:37.220Z,97392.52
2023-02-19T05:20:06.552Z,97392.65
2023-02-19T05:22:34.772Z,97389.70
2023-02-19T05:25:03.774Z,97394.80
2023-02-19T05:27:43.041Z,97386.56
2023-02-19T05:30:20.818Z,97387.16
2023-02-19T05:32:49.028Z,97390.80
2023-02-19T05:35:17.474Z,97391.75
2023-02-19T05:37:45.618Z,97396.05
2023-02-19T05:40:13.942Z,97394.38
2023-02-19T05:42:42.195Z,97399.05
2023-02-19T05:45:10.407Z,97397.51
2023-02-19T05:47:39.659Z,97389.70
2023-02-19T05:50:08.559Z,97380.67
2023-02-19T05:52:36.796Z,97386.86
2023-02-19T05:55:06.024Z,97392.40
2023-02-19T05:57:39.028Z,97388.63
2023-02-19T06:00:10.160Z,97384.27
2023-02-19T06:02:40.480Z,97379.94
2023-02-19T06:05:09.386Z,97380.24
2023-02-19T06:07:38.775Z,97377.30
2023-02-19T06:10:08.413Z,97376.27
2023-02-19T06:12:36.661Z,97378.73
2023-02-19T06:15:06.565Z,97375.92
2023-02-19T06:17:35.192Z,97370.70
2023-02-19T06:20:03.868Z,97376.54
2023-02-19T06:22:32.101Z,97375.27
2023-02-19T06:25:00.289Z,97377.13
2023-02-19T06:27:28.564Z,97379.35
2023-02-19T06:29:56.774Z,97378.34
2023-02-19T06:32:25.024Z,97379.36
2023-02-19T06:34:53.267Z,97375.61
2023-02-19T06:37:21.475Z,97378.01
2023-02-19T06:39:50.373Z,97376.23
2023-02-19T06:42:19.248Z,97371.45
2023-02-19T06:44:47.547Z,97372.59
2023-02-19T06:47:15.827Z,97372.99
2023-02-19T06:49:44.031Z,97372.56
2023-02-19T06:52:12.248Z,97370.84
2023-02-19T06:54:40.452Z,97370.89
2023-02-19T06:57:08.666Z,97370.00
2023-02-19T06:59:36.848Z,97374.64
2023-02-19T07:02:05.804Z,97369.25
2023-02-19T07:04:34.261Z,97368.02
2023-02-19T07:07:02.795Z,97373.36
2023-02-19T07:09:31.069Z,97368.91
2023-02-19T07:11:59.256Z,97368.88
2023-02-19T07:14:28.997Z,97378.65
2023-02-19T07:16:57.204Z,97375.59
2023-02-19T07:19:25.480Z,97376.19
2023-02-19T07:21:53.769Z,97374.10
2023-02-19T07:24:22.273Z,97369.27
2023-02-19T07:26:50.781Z,97371.98
2023-02-19T07:29:25.508Z,97368.73
2023-02-19T07:31:53.904Z,97368.48
2023-02-19T07:34:22.198Z,97365.77
2023-02-19T07:36:50.398Z,97362.61
2023-02-19T07:39:18.653Z,97362.44
2023-02-19T07:41:46.908Z,97367.16
2023-02-19T07:44:27.006Z,97368.59
2023-02-19T07:46:55.280Z,97367.25
2023-02-19T07:49:23.535Z,97359.71
2023-02-19T07:51:51.886Z,97356.02
2023-02-19T07:54:20.208Z,97356.18
2023-02-19T07:56:48.452Z,97357.77
2023-02-19T07:59:18.739Z,97362.48
2023-02-19T08:02:05.041Z,97359.89
2023-02-19T08:04:33.323Z,97357.85
2023-02-19T08:07:01.561Z,97357.96
2023-02-19T08:09:29.861Z,97360.88
2023-02-19T08:12:30.482Z,97361.98
2023-02-19T08:14:58.686Z,97367.14
2023-02-19T08:17:27.234Z,97375.54
2023-02-19T08:19:57.599Z,97381.59
2023-02-19T08:22:25.932Z,97384.73
2023-02-19T08:24:54.239Z,97390.38
2023-02-19T08:27:22.464Z,97386.02
2023-02-19T08:29:50.704Z,97390.97
2023-02-19T08:32:18.888Z,97387.36
2023-02-19T08:34:47.141Z,97389.46
2023-02-19T08:37:15.318Z,97391.63
2023-02-19T08:39:43.563Z,97393.36
2023-02-19T08:42:12.008Z,97396.52
2023-02-19T08:44:40.222Z,97393.01
2023-02-19T08:47:08.447Z,97392.11
2023-02-19T08:49:36.666Z,97392.23
2023-02-19T08:52:04.881Z,97390.02
2023-02-19T08:54:33.136Z,97385.80
2023-02-19T08:57:01.344Z,97387.88
2023-02-19T08:59:29.869Z,97384.55
2023-02-19T09:01:59.247Z,97381.50
2023-02-19T09:04:27.496Z,97383.48
2023-02-19T09:06:55.763Z,97382.60
2023-02-19T09:09:23.954Z,97391.59
2023-02-19T09:11:52.229Z,97403.86
2023-02-19T09:14:20.410Z,97403.70
2023-02-19T09:16:48.676Z,97409.83
2023-02-19T09:19:16.847Z,97411.22
2023-02-19T09:21:45.038Z,97411.39
2023-02-19T09:24:13.318Z,97413.66
2023-02-19T09:26:44.382Z,97414.53
2023-02-19T09:29:12.568Z,97418.50
2023-02-19T09:31:40.889Z,97423.69
2023-02-19T09:34:09.439Z,97433.34
2023-02-19T09:36:38.389Z,97434.30
2023-02-19T09:39:11.825Z,97441.60
2023-02-19T09:41:45.709Z,97449.67
2023-02-19T09:44:20.516Z,97453.00
2023-02-19T09:46:52.589Z,97456.96
2023-02-19T09:49:26.402Z,97461.34
2023-02-19T09:51:59.498Z,97471.81
2023-02-19T09:54:31.353Z,97474.16
2023-02-19T09:57:02.152Z,97483.11
2023-02-19T09:59:36.646Z,97486.95
2023-02-19T10:02:14.041Z,97490.44
2023-02-19T10:05:30.332Z,97495.77
2023-02-19T10:09:17.878Z,97500.20
2023-02-19T10:11:48.229Z,97502.81
2023-02-19T10:14:20.336Z,97505.11
2023-02-19T10:16:49.774Z,97507.76
2023-02-19T10:19:18.135Z,97508.11
2023-02-19T10:21:46.496Z,97513.13
2023-02-19T10:24:20.131Z,97510.39
2023-02-19T10:26:50.216Z,97514.61
2023-02-19T10:29:19.396Z,97522.80
2023-02-19T10:31:48.138Z,97520.16
2023-02-19T10:34:21.485Z,97519.36
2023-02-19T10:36:51.910Z,97525.74
2023-02-19T10:39:41.366Z,97529.73
2023-02-19T10:42:19.581Z,97524.18
2023-02-19T10:44:53.574Z,97523.41
2023-02-19T10:47:25.188Z,97529.84
2023-02-19T10:49:54.930Z,97533.80
2023-02-19T10:52:26.429Z,97539.12
2023-02-19T10:54:57.601Z,97539.01
2023-02-19T10:57:33.884Z,97533.86
2023-02-19T11:00:18.616Z,97540.28
2023-02-19T11:02:46.967Z,97538.85
2023-02-19T11:05:19.836Z,97541.48
2023-02-19T11:07:50.239Z,97554.58
2023-02-19T11:10:27.054Z,97556.46
2023-02-19T11:12:58.707Z,97558.45
2023-02-19T11:15:28.050Z,97561.20
2023-02-19T11:17:58.887Z,97561.11
2023-02-19T11:20:29.039Z,97565.27
2023-02-19T11:23:01.308Z,97567.54
2023-02-19T11:25:30.759Z,97569.08
2023-02-19T11:28:06.144Z,97572.02
2023-02-19T11:30:38.161Z,97574.82
2023-02-19T11:33:26.769Z,97577.17
2023-02-19T11:36:00.468Z,97582.33
2023-02-19T11:38:29.098Z,97582.56
2023-02-19T11:41:04.910Z,97585.88
2023-02-19T11:43:47.784Z,97586.06
2023-02-19T11:46:22.230Z,97588.78
2023-02-19T11:49:01.951Z,97593.28
2023-02-19T11:51:52.742Z,97593.43
2023-02-19T11:54:35.641Z,97598.01
2023-02-19T11:57:15.562Z,97605.09
2023-02-19T11:59:48.441Z,97601.84
2023-02-19T12:02:50.069Z,97611.98
2023-02-19T12:05:28.914Z,97614.56
2023-02-19T12:08:29.847Z,97616.68
2023-02-19T12:11:11.019Z,97620.39
2023-02-19T12:13:57.679Z,97620.02
2023-02-19T12:16:31.299Z,97620.62
2023-02-19T12:19:25.312Z,97621.14
2023-02-19T12:22:06.074Z,97626.38
2023-02-19T12:24:59.606Z,97632.13
2023-02-19T12:27:39.705Z,97635.70
2023-02-19T12:30:26.703Z,97640.48
2023-02-19T12:33:25.692Z,97642.85
2023-02-19T12:36:05.822Z,97646.73
2023-02-19T12:38:42.822Z,97642.92
2023-02-19T12:41:21.351Z,97642.90
2023-02-19T12:43:56.552Z,97644.48
2023-02-19T12:46:31.988Z,97643.70
2023-02-19T12:49:09.400Z,97648.26
2023-02-19T12:51:44.265Z,97655.61
2023-02-19T12:54:22.902Z,97650.35
2023-02-19T12:56:58.964Z,97654.23
2023-02-19T12:59:33.343Z,97658.03
2023-02-19T13:02:12.559Z,97662.16
2023-02-19T13:04:47.125Z,97664.70
2023-02-19T13:07:20.256Z,97670.35
2023-02-19T13:09:54.223Z,97674.52
2023-02-19T13:12:26.633Z,97678.77
2023-02-19T13:14:59.285Z,97679.63
2023-02-19T13:17:34.556Z,97685.13
2023-02-19T13:20:15.150Z,97684.77
2023-02-19T13:23:09.062Z,97688.66
2023-02-19T13:25:49.618Z,97692.11
2023-02-19T13:28:31.965Z,97690.27
2023-02-19T13:31:25.567Z,97695.20
2023-02-19T13:34:07.676Z,97694.84
2023-02-19T13:36:50.022Z,97701.13
2023-02-19T13:39:24.493Z,97706.02
2023-02-19T13:41:55.604Z,97705.68
2023-02-19T13:44:28.678Z,97711.88
2023-02-19T13:46:57.568Z,97717.27
2023-02-19T13:49:41.516Z,97722.06
2023-02-19T13:52:40.569Z,97733.23
2023-02-19T13:55:46.518Z,97735.88
2023-02-19T13:58:52.993Z,97739.20
2023-02-19T14:02:13.002Z,97744.36
2023-02-19T14:04:53.542Z,97748.73
2023-02-19T14:07:46.987Z,97752.73
2023-02-19T14:10:51.017Z,97753.60
2023-02-19T14:13:50.587Z,97759.66
2023-02-19T14:16:50.476Z,97761.06
2023-02-19T14:19:51.110Z,97769.48
2023-02-19T14:23:01.155Z,97771.91
2023-02-19T14:25:35.142Z,97782.58
2023-02-19T14:28:06.584Z,97790.81
2023-02-19T14:30:43.282Z,97792.07
2023-02-19T14:33:11.853Z,97798.02
2023-02-19T14:35:43.053Z,97800.97
2023-02-19T14:38:18.024Z,97804.40
2023-02-19T14:40:48.121Z,97805.96
2023-02-19T14:43:19.514Z,97807.44
2023-02-19T14:45:51.143Z,97812.51
2023-02-19T14:48:21.479Z,97816.11
2023-02-19T14:50:53.816Z,97821.05
2023-02-19T14:53:24.452Z,97823.60
2023-02-19T14:55:54.783Z,97825.62
2023-02-19T14:58:28.229Z,97830.27
2023-02-19T15:00:56.690Z,97831.16
2023-02-19T15:03:28.654Z,97830.55
2023-02-19T15:05:58.380Z,97828.52
2023-02-19T15:08:32.238Z,97840.08
2023-02-19T15:11:02.520Z,97841.30
2023-02-19T15:13:31.719Z,97847.39
2023-02-19T15:16:01.333Z,97848.57
2023-02-19T15:18:34.871Z,97847.05
2023-02-19T15:21:06.222Z,97850.64
2023-02-19T15:23:36.637Z,97855.36
2023-02-19T15:26:05.248Z,97860.13
2023-02-19T15:28:34.495Z,97860.84
2023-02-19T15:31:15.278Z,97866.04
2023-02-19T15:33:51.713Z,97870.16
2023-02-19T15:36:27.103Z,97864.41
2023-02-19T15:38:58.763Z,97867.11
2023-02-19T15:41:29.529Z,97873.03
2023-02-19T15:44:06.896Z,97878.90
2023-02-19T15:46:37.160Z,97886.13
2023-02-19T15:49:13.358Z,97891.25
2023-02-19T15:51:46.879Z,97895.58
2023-02-19T15:54:27.271Z,97905.31
2023-02-19T15:56:59.006Z,97908.65
2023-02-19T15:59:35.720Z,97911.60
2023-02-19T16:02:05.585Z,97921.04
2023-02-19T16:04:35.226Z,97928.94
2023-02-19T16:07:03.844Z,97935.98
2023-02-19T16:09:34.766Z,97944.89
2023-02-19T16:12:18.578Z,97943.95
2023-02-19T16:14:48.520Z,97947.25
2023-02-19T16:17:20.193Z,97952.42
2023-02-19T16:19:53.460Z,97953.15
2023-02-19T16:22:24.372Z,97963.64
2023-02-19T16:24:55.445Z,97966.78
2023-02-19T16:27:33.169Z,97973.17
2023-02-19T16:30:07.456Z,97972.15
2023-02-19T16:32:35.770Z,97978.42
2023-02-19T16:35:04.161Z,97984.38
2023-02-19T16:37:41.571Z,97990.98
2023-02-19T16:40:50.518Z,97994.10
2023-02-19T16:43:30.687Z,97997.89
2023-02-19T16:46:01.269Z,98003.15
2023-02-19T16:48:30.236Z,98009.73
2023-02-19T16:50:59.079Z,98015.65
2023-02-19T16:53:28.661Z,98022.09
2023-02-19T16:55:57.006Z,98028.39
2023-02-19T16:58:25.282Z,98029.60
2023-02-19T17:00:53.677Z,98034.89
2023-02-19T17:03:24.558Z,98041.13
2023-02-19T17:05:53.732Z,98041.98
2023-02-19T17:08:34.557Z,98048.05
2023-02-19T17:11:05.662Z,98049.34
2023-02-19T17:13:33.965Z,98053.23
2023-02-19T17:16:02.792Z,98055.75
2023-02-19T17:18:31.109Z,98060.98
2023-02-19T17:21:10.562Z,98061.58
2023-02-19T17:23:41.290Z,98066.42
2023-02-19T17:26:13.545Z,98069.96
2023-02-19T17:28:41.764Z,98076.00
2023-02-19T17:31:11.181Z,98079.07
2023-02-19T17:33:39.913Z,98079.42
2023-02-19T17:36:15.765Z,98082.77
2023-02-19T17:38:44.161Z,98085.81
2023-02-19T17:41:12.816Z,98097.69
2023-02-19T17:43:41.289Z,98100.92
2023-02-19T17:46:15.300Z,98105.75
2023-02-19T17:48:43.552Z,98108.52
2023-02-19T17:51:12.315Z,98114.35
2023-02-19T17:53:41.191Z,98120.86
2023-02-19T17:56:11.487Z,98119.52
2023-02-19T17:58:42.538Z,98124.44
2023-02-19T18:01:13.228Z,98130.42
2023-02-19T18:03:41.795Z,98130.86
2023-02-19T18:06:32.141Z,98136.77
2023-02-19T18:09:17.561Z,98141.34
2023-02-19T18:11:46.331Z,98139.67
2023-02-19T18:14:14.684Z,98145.55
2023-02-19T18:16:49.399Z,98155.45
2023-02-19T18:19:18.999Z,98166.80
2023-02-19T18:21:49.756Z,98174.77
2023-02-19T18:24:18.853Z,98176.45
2023-02-19T18:26:47.048Z,98182.77
2023-02-19T18:29:15.500Z,98180.86
2023-02-19T18:31:44.067Z,98179.15
2023-02-19T18:34:18.457Z,98180.35
2023-02-19T18:36:46.930Z,98180.24
2023-02-19T18:39:15.744Z,98178.95
2023-02-19T18:41:48.885Z,98181.11
2023-02-19T18:44:20.990Z,98184.34
2023-02-19T18:46:49.902Z,98182.27
2023-02-19T18:49:18.266Z,98183.23
2023-02-19T18:51:46.975Z,98191.18
2023-02-19T18:54:15.440Z,98191.77
2023-02-19T18:56:45.230Z,98189.64
2023-02-19T18:59:14.178Z,98193.33
2023-02-19T19:01:43.654Z,98194.32
2023-02-19T19:04:12.227Z,98203.21
2023-02-19T19:06:40.516Z,98208.70
2023-02-19T19:09:08.986Z,98206.55
2023-02-19T19:11:37.585Z,98208.01
2023-02-19T19:14:06.252Z,98221.03
2023-02-19T19:16:34.653Z,98226.70
2023-02-19T19:19:03.284Z,98226.81
2023-02-19T19:21:31.951Z,98222.45
2023-02-19T19:24:00.207Z,98228.86
2023-02-19T19:26:28.747Z,98229.88
2023-02-19T19:28:57.245Z,98228.77
2023-02-19T19:54:21.710Z,98251.89
2023-02-19T19:56:50.258Z,98258.86
2023-02-19T19:59:19.185Z,98262.14
2023-02-19T20:01:51.608Z,98266.39
2023-02-19T20:04:21.607Z,98261.60
2023-02-19T20:06:50.526Z,98261.42
2023-02-19T20:09:24.475Z,98259.06
2023-02-19T20:11:53.933Z,98255.80
2023-02-19T20:14:23.731Z,98254.02
2023-02-19T20:16:52.397Z,98258.14
2023-02-19T20:19:21.197Z,98256.73
2023-02-19T20:21:54.291Z,98260.71
2023-02-19T20:24:28.801Z,98266.08
2023-02-19T20:26:59.517Z,98265.73
2023-02-19T20:29:29.177Z,98265.73
2023-02-19T20:31:59.232Z,98266.60
2023-02-19T20:34:29.978Z,98270.84
2023-02-19T20:36:58.381Z,98276.02
2023-02-19T20:39:28.511Z,98277.64
2023-02-19T20:41:58.659Z,98281.30
2023-02-19T20:44:28.376Z,98286.16
2023-02-19T20:46:58.226Z,98291.86
2023-02-19T20:49:28.569Z,98294.78
2023-02-19T20:51:58.944Z,98298.06
2023-02-19T20:54:28.862Z,98302.88
2023-02-19T20:56:58.797Z,98308.02
2023-02-19T20:59:30.031Z,98307.38
2023-02-19T21:01:58.655Z,98308.83
2023-02-19T21:04:27.241Z,98313.81
2023-02-19T21:06:55.641Z,98320.21
2023-02-19T21:09:24.206Z,98326.27
2023-02-19T21:11:52.714Z,98329.05
2023-02-19T21:14:20.962Z,98331.92
2023-02-19T21:16:49.221Z,98335.48
2023-02-19T21:19:17.501Z,98344.67
2023-02-19T21:21:45.759Z,98344.70
2023-02-19T21:24:15.193Z,98348.66
2023-02-19T21:26:44.055Z,98348.88
2023-02-19T21:29:18.167Z,98355.43
2023-02-19T21:31:48.232Z,98352.92
2023-02-19T21:34:18.467Z,98356.04
2023-02-19T21:36:46.684Z,98355.88
2023-02-19T21:39:17.262Z,98359.51
2023-02-19T21:41:45.468Z,98362.95
2023-02-19T21:44:14.007Z,98363.46
2023-02-19T21:46:42.472Z,98359.91
2023-02-19T21:49:11.509Z,98362.70
2023-02-19T21:51:41.185Z,98367.50
2023-02-19T21:54:15.365Z,98367.73
2023-02-19T21:56:43.812Z,98369.70
2023-02-19T21:59:13.023Z,98373.14
2023-02-19T22:01:42.431Z,98376.44
2023-02-19T22:04:13.504Z,98377.35
2023-02-19T22:06:41.886Z,98379.45
2023-02-19T22:09:12.943Z,98374.71
2023-02-19T22:11:41.541Z,98375.23
2023-02-19T22:14:09.891Z,98375.77
2023-02-19T22:16:38.095Z,98382.41
2023-02-19T22:19:06.333Z,98390.23
2023-02-19T22:21:34.904Z,98390.08
2023-02-19T22:24:03.971Z,98387.93
2023-02-19T22:26:34.976Z,98385.39
2023-02-19T22:29:06.319Z,98391.88
2023-02-19T22:31:34.772Z,98395.59
2023-02-19T22:34:03.837Z,98393.08
2023-02-19T22:36:33.595Z,98397.50
2023-02-19T22:39:03.172Z,98405.36
2023-02-19T22:41:31.432Z,98403.99
2023-02-19T22:43:59.699Z,98407.89
2023-02-19T22:46:30.233Z,98407.20
2023-02-19T22:49:01.962Z,98403.60
2023-02-19T22:51:30.446Z,98407.14
2023-02-19T22:54:00.817Z,98407.14
2023-02-19T22:56:29.581Z,98406.27
2023-02-19T22:58:58.294Z,98407.33
2023-02-19T23:01:26.605Z,98410.89
2023-02-19T23:03:56.348Z,98413.13
2023-02-19T23:06:26.748Z,98414.46
2023-02-19T23:08:57.503Z,98418.65
2023-02-19T23:11:27.954Z,98427.81
2023-02-19T23:13:56.530Z,98435.48
2023-02-19T23:16:25.421Z,98438.18
2023-02-19T23:18:54.465Z,98435.11
2023-02-19T23:21:23.138Z,98440.87
2023-02-19T23:23:51.432Z,98436.27
2023-02-19T23:26:20.089Z,98440.36
2023-02-19T23:28:48.281Z,98443.21
2023-02-19T23:31:17.442Z,98441.83
2023-02-19T23:33:46.182Z,98443.00
2023-02-19T23:36:15.847Z,98445.01
2023-02-19T23:38:45.069Z,98442.58
2023-02-19T23:41:15.264Z,98442.40
2023-02-19T23:43:44.109Z,98444.89
2023-02-19T23:46:16.393Z,98442.33
2023-02-19T23:48:45.254Z,98445.02
2023-02-19T23:51:13.984Z,98435.61
2023-02-19T23:53:42.219Z,98437.42
2023-02-19T23:56:10.491Z,98430.27
2023-02-19T23:58:38.802Z,98429.35
